Time;durP1;ratioP1;P1;durP2;ratioP2;P2;SDS_P1;SDS_P2;PMS_P1;PMS_P2;Temp;Humidity;BMP_temperature;BMP_pressure;BME280_temperature;BME280_humidity;BME280_pressure;Samples;Min_cycle;Max_cycle;Signal;HPM_P1;HPM_P2
2022/07/11 00:04:21;;;;;;;1.52;0.70;;;21.70;99.60;;;;;;13002421;22;20548;-91
2022/07/11 00:09:23;;;;;;;2.53;0.60;;;21.60;99.70;;;;;;12983479;22;20231;-91
2022/07/11 00:14:26;;;;;;;0.80;0.70;;;21.60;99.60;;;;;;12956319;22;20194;-92
2022/07/11 00:19:29;;;;;;;1.30;0.80;;;21.60;99.60;;;;;;12957007;22;20165;-91
2022/07/11 00:24:32;;;;;;;1.98;0.70;;;21.60;99.50;;;;;;12955772;22;20212;-91
2022/07/11 00:29:35;;;;;;;1.17;0.73;;;21.60;99.40;;;;;;12979728;22;20259;-92
2022/07/11 00:34:37;;;;;;;1.42;0.70;;;21.60;99.50;;;;;;12982254;22;20166;-91
2022/07/11 00:39:40;;;;;;;1.25;0.85;;;21.60;99.40;;;;;;12955401;22;20208;-91
2022/07/11 00:44:42;;;;;;;3.53;0.82;;;21.40;99.60;;;;;;12981018;22;20212;-92
2022/07/11 00:49:46;;;;;;;3.15;1.02;;;21.60;99.40;;;;;;12954976;22;20193;-90
2022/07/11 00:54:49;;;;;;;2.42;0.82;;;21.50;99.40;;;;;;12975114;22;20220;-92
2022/07/11 00:59:52;;;;;;;2.58;0.93;;;21.50;99.40;;;;;;12956047;22;20224;-92
2022/07/11 01:04:55;;;;;;;0.95;0.80;;;21.50;99.40;;;;;;12955938;22;20166;-92
2022/07/11 01:09:58;;;;;;;1.52;0.80;;;21.50;99.40;;;;;;12973415;22;20211;-91
2022/07/11 01:15:03;;;;;;;0.70;0.65;;;21.40;99.30;;;;;;12953602;22;20202;-92
2022/07/11 01:20:06;;;;;;;2.47;1.00;;;21.40;99.30;;;;;;12980794;22;20165;-91
2022/07/11 01:25:09;;;;;;;0.82;0.73;;;21.50;99.20;;;;;;12980260;22;20536;-91
2022/07/11 01:30:11;;;;;;;2.53;0.73;;;21.40;99.20;;;;;;12978898;22;20198;-92
2022/07/11 01:35:14;;;;;;;2.00;0.77;;;21.40;99.20;;;;;;12974237;22;20216;-92
2022/07/11 01:40:17;;;;;;;1.73;0.80;;;21.40;99.10;;;;;;12953967;22;20228;-91
2022/07/11 01:45:19;;;;;;;0.95;0.70;;;21.40;99.30;;;;;;12988798;22;20169;-91
2022/07/11 01:50:22;;;;;;;0.73;0.70;;;21.40;98.90;;;;;;12981500;22;20260;-91
2022/07/11 01:55:24;;;;;;;0.90;0.60;;;21.50;98.80;;;;;;12981753;22;20699;-91
2022/07/11 02:00:27;;;;;;;2.05;0.70;;;21.50;98.70;;;;;;12981364;22;20548;-90
2022/07/11 02:05:30;;;;;;;1.73;0.82;;;21.50;98.70;;;;;;12954600;22;20162;-91
2022/07/11 02:10:32;;;;;;;0.95;0.85;;;21.50;98.60;;;;;;12981000;22;20190;-92
2022/07/11 02:15:35;;;;;;;2.90;0.95;;;21.40;98.60;;;;;;12980572;22;20585;-91
2022/07/11 02:20:39;;;;;;;0.88;0.70;;;21.30;98.00;;;;;;12978964;22;20208;-91
2022/07/11 02:25:42;;;;;;;1.45;0.85;;;21.40;98.60;;;;;;12953910;22;20177;-91
2022/07/11 02:30:45;;;;;;;0.50;0.50;;;21.30;98.50;;;;;;12953101;22;20212;-91
2022/07/11 02:35:48;;;;;;;1.90;0.80;;;21.40;98.50;;;;;;12981194;22;20219;-92
2022/07/11 02:40:50;;;;;;;1.10;0.70;;;21.30;98.50;;;;;;12981294;22;20219;-91
2022/07/11 02:45:53;;;;;;;1.40;1.00;;;21.40;98.30;;;;;;12981260;22;20170;-91
2022/07/11 02:50:55;;;;;;;2.35;0.60;;;21.40;98.30;;;;;;12978671;22;20699;-91
2022/07/11 02:55:58;;;;;;;1.55;0.90;;;21.40;98.20;;;;;;12968961;22;20538;-91
2022/07/11 03:01:00;;;;;;;1.15;0.70;;;21.30;98.40;;;;;;12986197;22;20174;-92
2022/07/11 03:06:03;;;;;;;4.53;1.10;;;21.30;98.30;;;;;;12985065;22;20475;-93
2022/07/11 03:11:06;;;;;;;1.35;0.77;;;21.30;98.10;;;;;;12957810;22;20240;-91
2022/07/11 03:16:09;;;;;;;2.03;1.10;;;21.30;98.10;;;;;;12956936;22;20878;-91
2022/07/11 03:21:11;;;;;;;0.77;0.70;;;21.30;98.10;;;;;;12958179;22;20506;-91
2022/07/11 03:26:14;;;;;;;1.38;0.80;;;21.40;98.00;;;;;;12983938;22;20193;-91
2022/07/11 03:31:16;;;;;;;1.08;0.82;;;21.30;98.00;;;;;;12957506;22;20185;-91
2022/07/11 03:36:19;;;;;;;1.27;0.82;;;21.40;97.80;;;;;;12982876;22;20162;-91
2022/07/11 03:41:21;;;;;;;0.77;0.63;;;21.30;98.10;;;;;;12984608;22;20801;-91
2022/07/11 03:46:24;;;;;;;1.83;0.90;;;21.40;97.70;;;;;;12957468;22;20186;-91
2022/07/11 03:51:27;;;;;;;0.95;0.60;;;21.40;97.60;;;;;;12977566;22;20189;-90
2022/07/11 03:56:30;;;;;;;0.60;0.50;;;21.40;97.60;;;;;;13004314;22;20215;-92
2022/07/11 04:01:32;;;;;;;1.55;0.90;;;21.40;97.60;;;;;;12959211;22;20240;-91
2022/07/11 04:06:35;;;;;;;1.70;0.73;;;21.30;97.60;;;;;;12983298;22;20169;-91
2022/07/11 04:11:39;;;;;;;2.10;0.88;;;21.30;97.60;;;;;;12983434;22;20217;-90
2022/07/11 04:16:42;;;;;;;1.73;1.00;;;21.30;97.50;;;;;;12984883;22;20189;-90
2022/07/11 04:21:44;;;;;;;2.60;0.90;;;21.40;97.40;;;;;;12956392;22;20167;-91
2022/07/11 04:26:47;;;;;;;1.30;0.85;;;21.40;96.90;;;;;;12986003;22;20546;-90
2022/07/11 04:31:50;;;;;;;1.80;0.60;;;21.30;97.50;;;;;;12986059;22;20186;-91
2022/07/11 04:36:52;;;;;;;1.30;0.73;;;21.50;97.50;;;;;;12955828;22;20173;-91
2022/07/11 04:41:56;;;;;;;1.15;0.85;;;21.50;97.20;;;;;;12980969;22;20177;-91
2022/07/11 04:47:00;;;;;;;1.02;0.85;;;21.30;97.30;;;;;;12981997;22;20200;-91
2022/07/11 04:52:03;;;;;;;2.15;0.82;;;21.40;97.20;;;;;;12954709;22;20197;-90
2022/07/11 04:57:06;;;;;;;1.40;0.75;;;21.40;97.00;;;;;;12981988;22;20169;-89
2022/07/11 05:02:09;;;;;;;2.28;0.63;;;21.60;96.80;;;;;;12982171;22;20178;-91
2022/07/11 05:07:15;;;;;;;1.55;0.95;;;21.60;96.90;;;;;;13001390;22;20505;-90
2022/07/11 05:12:20;;;;;;;0.85;0.57;;;21.50;96.90;;;;;;12976382;22;20189;-90
2022/07/11 05:17:23;;;;;;;5.25;1.05;;;21.50;96.90;;;;;;12954095;22;20583;-90
2022/07/11 05:22:25;;;;;;;3.47;1.10;;;20.20;98.40;;;;;;13001071;22;20165;-90
2022/07/11 05:27:28;;;;;;;3.42;0.88;;;19.80;99.40;;;;;;12989730;22;20260;-90
2022/07/11 05:32:31;;;;;;;5.95;1.88;;;19.40;99.90;;;;;;13060264;22;20238;-90
2022/07/11 05:37:39;;;;;;;1.30;0.70;;;19.80;99.90;;;;;;13060607;22;20201;-90
2022/07/11 05:42:41;;;;;;;3.97;1.55;;;20.20;99.80;;;;;;13059606;22;20195;-91
2022/07/11 05:47:44;;;;;;;3.47;1.48;;;20.70;99.10;;;;;;13017609;22;20217;-90
2022/07/11 05:52:46;;;;;;;2.50;0.88;;;20.30;99.50;;;;;;13015664;22;20247;-90
2022/07/11 05:57:49;;;;;;;6.90;1.73;;;;;;;;;;13016161;22;20205;-89
2022/07/11 06:02:51;;;;;;;6.17;1.90;;;15.10;99.90;;;;;;13042173;22;20244;-90
2022/07/11 06:13:15;;;;;;;4.57;2.07;;;13.90;99.90;;;;;;13040572;22;20261;-89
2022/07/11 06:18:18;;;;;;;7.97;2.87;;;14.30;99.90;;;;;;13016601;22;20252;-90
2022/07/11 06:23:20;;;;;;;11.13;3.10;;;13.70;99.90;;;;;;13043186;22;20225;-90
2022/07/11 06:28:23;;;;;;;2.67;1.23;;;14.70;99.90;;;;;;12991132;22;20249;-90
2022/07/11 06:33:26;;;;;;;2.47;1.30;;;17.60;99.90;;;;;;13043241;22;20237;-90
2022/07/11 06:38:29;;;;;;;3.47;1.47;;;19.00;99.90;;;;;;13046304;22;20237;-90
2022/07/11 06:43:31;;;;;;;2.60;1.00;;;19.80;99.90;;;;;;13046510;22;20210;-90
2022/07/11 06:48:34;;;;;;;2.35;1.02;;;19.10;99.90;;;;;;13047242;22;20176;-90
2022/07/11 06:53:36;;;;;;;2.70;0.82;;;19.90;99.90;;;;;;13019218;22;20272;-89
2022/07/11 07:04:15;;;;;;;1.67;1.08;;;20.00;99.90;;;;;;13002445;22;20319;-82
2022/07/11 07:09:18;;;;;;;2.33;1.10;;;20.10;99.90;;;;;;13008955;22;20204;-90
2022/07/11 07:14:21;;;;;;;3.28;0.95;;;20.50;99.90;;;;;;13039577;22;20584;-89
2022/07/11 07:19:24;;;;;;;2.03;1.02;;;20.20;99.90;;;;;;13043844;22;20503;-89
2022/07/11 07:24:26;;;;;;;3.95;1.48;;;20.20;99.90;;;;;;13045422;22;20254;-89
2022/07/11 07:29:29;;;;;;;1.20;0.82;;;20.30;99.90;;;;;;13046272;22;20165;-89
2022/07/11 07:34:32;;;;;;;2.92;0.93;;;20.30;99.90;;;;;;13045057;22;20227;-91
2022/07/11 07:39:34;;;;;;;2.33;1.20;;;19.90;99.90;;;;;;13047116;22;20472;-90
2022/07/11 07:44:37;;;;;;;3.30;0.93;;;19.60;99.90;;;;;;13015547;22;20253;-90
2022/07/11 07:49:40;;;;;;;2.55;1.00;;;20.00;99.90;;;;;;13045706;22;20210;-89
2022/07/11 07:54:42;;;;;;;1.85;1.10;;;20.30;99.90;;;;;;13038543;22;20189;-90
2022/07/11 07:59:45;;;;;;;3.00;1.48;;;20.50;99.90;;;;;;13044910;22;20165;-90
2022/07/11 08:04:47;;;;;;;2.25;1.08;;;21.20;99.90;;;;;;13044632;22;20177;-89
2022/07/11 08:09:50;;;;;;;2.38;0.95;;;21.60;99.90;;;;;;13080705;22;20181;-90
2022/07/11 08:14:52;;;;;;;1.77;1.17;;;21.10;99.90;;;;;;13080716;22;20584;-91
2022/07/11 08:19:55;;;;;;;1.02;0.63;;;21.10;99.90;;;;;;13110365;22;20168;-91
2022/07/11 08:24:58;;;;;;;1.40;1.10;;;20.90;99.90;;;;;;13081957;22;20180;-90
2022/07/11 08:30:03;;;;;;;8.27;0.82;;;21.40;99.90;;;;;;13084810;22;20195;-91
2022/07/11 08:35:15;;;;;;;3.28;0.68;;;20.90;99.90;;;;;;13059269;22;20196;-90
2022/07/11 08:40:18;;;;;;;1.00;0.55;;;21.00;99.90;;;;;;13057895;22;20229;-91
2022/07/11 08:45:26;;;;;;;2.03;0.75;;;20.80;99.90;;;;;;13108885;22;20221;-90
2022/07/11 08:50:28;;;;;;;1.02;0.55;;;21.40;99.90;;;;;;13092725;22;20200;-91
2022/07/11 08:55:31;;;;;;;1.50;0.68;;;20.60;99.90;;;;;;13079930;22;20200;-93
2022/07/11 09:00:35;;;;;;;2.75;0.93;;;20.90;99.90;;;;;;13082229;22;20233;-91
2022/07/11 09:05:38;;;;;;;4.35;0.90;;;21.20;99.90;;;;;;13080594;22;20196;-91
2022/07/11 09:10:40;;;;;;;1.60;0.68;;;20.90;99.90;;;;;;13111131;22;20190;-93
2022/07/11 09:15:50;;;;;;;3.38;1.05;;;20.20;99.90;;;;;;13075565;22;20204;-92
2022/07/11 09:26:16;;;;;;;1.27;0.60;;;21.60;99.90;;;;;;13121488;22;20489;-93
2022/07/11 09:31:21;;;;;;;2.47;0.50;;;21.60;98.30;;;;;;13105732;22;20203;-92
2022/07/11 09:36:34;;;;;;;0.70;0.57;;;21.30;97.60;;;;;;13076497;22;20204;-93
2022/07/11 09:41:38;;;;;;;0.50;0.40;;;21.60;97.80;;;;;;13099026;22;20226;-93
2022/07/11 09:46:43;;;;;;;0.88;0.10;;;20.40;99.90;;;;;;13080028;22;20235;-91
2022/07/11 09:51:45;;;;;;;0.93;0.30;;;19.30;99.90;;;;;;13081873;22;20172;-92
2022/07/11 09:56:51;;;;;;;0.20;0.10;;;18.90;99.90;;;;;;13055500;22;20180;-93
2022/07/11 10:01:58;;;;;;;0.68;0.40;;;19.20;99.90;;;;;;13055594;22;20184;-92
2022/07/11 10:07:01;;;;;;;0.67;0.30;;;19.80;99.90;;;;;;13080705;22;20682;-91
2022/07/11 10:12:04;;;;;;;0.43;0.20;;;19.50;99.60;;;;;;13107366;22;20188;-92
2022/07/11 10:17:18;;;;;;;2.67;0.30;;;18.00;99.90;;;;;;13078397;22;20229;-91
2022/07/11 10:22:26;;;;;;;1.67;0.30;;;17.20;99.90;;;;;;13108375;22;20168;-92
2022/07/11 10:27:31;;;;;;;0.50;0.20;;;17.90;99.90;;;;;;13099933;22;20222;-92
2022/07/11 10:32:59;;;;;;;0.53;0.27;;;18.10;99.90;;;;;;13077601;22;20197;-92
2022/07/11 10:38:05;;;;;;;2.27;0.20;;;17.90;99.90;;;;;;13052280;22;20237;-91
2022/07/11 10:43:08;;;;;;;1.40;0.30;;;18.40;99.90;;;;;;13080409;22;20183;-91
2022/07/11 10:48:13;;;;;;;0.50;0.20;;;18.90;99.90;;;;;;13107976;22;20168;-91
2022/07/11 10:53:23;;;;;;;0.93;0.30;;;19.30;99.90;;;;;;13083270;22;20229;-91
2022/07/11 10:58:29;;;;;;;0.23;0.13;;;19.60;99.90;;;;;;13108772;22;20539;-91
2022/07/11 11:03:32;;;;;;;1.30;0.28;;;20.00;99.90;;;;;;13055910;22;20180;-91
2022/07/11 11:08:41;;;;;;;0.25;0.10;;;20.30;99.90;;;;;;13079812;22;20226;-90
2022/07/11 11:13:43;;;;;;;0.25;0.20;;;20.20;99.90;;;;;;13100343;22;20513;-91
2022/07/11 11:18:46;;;;;;;1.38;0.30;;;20.50;99.90;;;;;;13053751;22;20643;-91
2022/07/11 11:24:02;;;;;;;0.73;0.38;;;20.70;99.90;;;;;;13113138;22;20199;-92
2022/07/11 11:29:06;;;;;;;0.22;0.20;;;21.30;99.90;;;;;;13132199;22;20171;-92
2022/07/11 11:34:13;;;;;;;0.10;0.10;;;20.90;99.90;;;;;;13086593;22;20638;-92
2022/07/11 11:39:33;;;;;;;0.73;0.30;;;21.00;99.90;;;;;;13106468;22;20194;-92
2022/07/11 11:44:51;;;;;;;1.65;1.00;;;21.00;99.90;;;;;;13084420;22;20180;-91
2022/07/11 11:49:54;;;;;;;1.73;0.30;;;20.70;99.90;;;;;;13127762;22;20172;-91
2022/07/11 11:54:58;;;;;;;0.57;0.30;;;20.80;99.90;;;;;;13084070;22;20201;-91
2022/07/11 12:00:00;;;;;;;1.40;0.30;;;20.70;99.90;;;;;;13112794;22;20161;-91
2022/07/11 12:05:07;;;;;;;0.45;0.25;;;21.10;99.90;;;;;;13118404;22;20261;-78
2022/07/11 12:10:13;;;;;;;0.65;0.38;;;20.80;99.90;;;;;;13082909;22;20181;-79
2022/07/11 12:15:31;;;;;;;0.47;0.20;;;20.80;99.90;;;;;;13104183;22;20214;-79
2022/07/11 12:20:50;;;;;;;0.40;0.20;;;20.70;99.90;;;;;;13085704;22;20176;-81
2022/07/11 12:25:52;;;;;;;0.20;0.20;;;20.90;98.40;;;;;;13081683;22;20233;-80
2022/07/11 12:30:58;;;;;;;0.30;0.25;;;21.30;98.30;;;;;;13110431;22;20164;-79
2022/07/11 12:36:02;;;;;;;2.22;0.52;;;21.60;96.90;;;;;;13109226;22;20185;-79
2022/07/11 12:41:05;;;;;;;0.32;0.20;;;21.90;98.30;;;;;;13109206;22;20206;-81
2022/07/11 12:46:10;;;;;;;0.30;0.20;;;21.70;98.80;;;;;;13082427;22;20180;-78
2022/07/11 12:51:26;;;;;;;2.40;0.10;;;21.50;97.70;;;;;;13082809;22;20518;-78
2022/07/11 12:56:29;;;;;;;0.45;0.20;;;21.20;96.70;;;;;;13128202;22;20188;-79
2022/07/11 13:01:33;;;;;;;0.50;0.30;;;21.20;99.90;;;;;;13108417;22;20160;-80
2022/07/11 13:12:03;;;;;;;0.52;0.22;;;21.60;99.40;;;;;;13128545;22;20495;-79
2022/07/11 13:17:05;;;;;;;0.32;0.30;;;21.70;99.30;;;;;;13056947;22;20204;-80
2022/07/11 13:22:14;;;;;;;0.22;0.10;;;21.70;99.20;;;;;;13108187;22;20190;-80
2022/07/11 13:27:17;;;;;;;0.22;0.10;;;21.80;99.00;;;;;;13109121;22;20194;-82
2022/07/11 13:32:19;;;;;;;0.10;0.10;;;21.80;99.10;;;;;;13109292;22;20168;-81
2022/07/11 13:37:22;;;;;;;0.65;0.40;;;21.70;99.20;;;;;;13108865;22;20172;-81
2022/07/11 13:42:25;;;;;;;5.38;1.00;;;21.60;99.40;;;;;;13080668;22;20165;-81
2022/07/11 13:47:27;;;;;;;0.70;0.50;;;17.10;99.90;;;;;;13080186;22;20165;-81
2022/07/11 13:52:30;;;;;;;0.70;0.50;;;15.80;99.90;;;;;;13079431;22;20215;-81
2022/07/11 13:57:34;;;;;;;0.70;0.30;;;16.40;99.90;;;;;;13079179;22;20183;-81
2022/07/11 14:02:37;;;;;;;0.20;0.20;;;16.90;99.90;;;;;;13106819;22;20440;-80
2022/07/11 14:07:40;;;;;;;2.37;0.40;;;18.10;99.90;;;;;;13107608;22;20580;-79
2022/07/11 14:12:42;;;;;;;0.30;0.20;;;17.50;99.90;;;;;;13080922;22;20506;-79
2022/07/11 14:17:45;;;;;;;0.33;0.30;;;18.60;99.90;;;;;;13108586;22;20245;-80
2022/07/11 14:22:48;;;;;;;0.50;0.20;;;19.60;99.90;;;;;;13079044;22;20180;-80
2022/07/11 14:27:51;;;;;;;0.83;0.50;;;19.60;99.90;;;;;;13107868;22;20160;-80
2022/07/11 14:32:54;;;;;;;1.17;0.30;;;19.40;99.90;;;;;;13105882;22;20438;-80
2022/07/11 14:37:58;;;;;;;1.02;0.20;;;;;;;;;;13078517;22;20234;-82
2022/07/11 14:43:00;;;;;;;0.52;0.32;;;19.50;99.90;;;;;;13054107;22;20231;-96
2022/07/11 14:48:04;;;;;;;0.40;0.30;;;19.90;99.90;;;;;;13034044;22;20198;-96
2022/07/11 14:53:06;;;;;;;0.40;0.30;;;19.70;99.90;;;;;;13037991;22;20189;-96
2022/07/11 14:58:09;;;;;;;1.10;0.30;;;19.70;99.90;;;;;;13036332;22;20173;-95
2022/07/11 15:13:57;;;;;;;0.70;0.32;;;19.50;99.90;;;;;;13053189;22;20192;-96
2022/07/11 15:19:01;;;;;;;0.60;0.43;;;19.60;99.90;;;;;;13031242;22;20177;-96
2022/07/11 15:24:11;;;;;;;2.50;0.50;;;18.90;99.90;;;;;;13045469;22;20489;-96
2022/07/11 15:29:16;;;;;;;0.43;0.25;;;18.60;99.90;;;;;;13048010;22;20173;-95
2022/07/11 15:34:19;;;;;;;2.75;0.22;;;18.60;99.90;;;;;;13027145;22;20197;-94
2022/07/11 15:39:21;;;;;;;0.85;0.30;;;18.40;99.90;;;;;;13051792;22;20226;-96
2022/07/11 15:44:25;;;;;;;0.30;0.25;;;18.60;99.90;;;;;;13028863;22;20266;-96
2022/07/11 15:49:30;;;;;;;1.52;0.32;;;18.60;99.90;;;;;;13036531;22;20211;-96
2022/07/11 15:54:33;;;;;;;2.95;0.35;;;18.90;99.90;;;;;;13059172;22;20656;-96
2022/07/11 15:59:36;;;;;;;0.30;0.20;;;19.00;99.90;;;;;;13057350;22;20169;-95
2022/07/11 16:04:39;;;;;;;0.40;0.28;;;19.00;99.90;;;;;;13037575;22;20239;-96
2022/07/11 16:09:49;;;;;;;0.68;0.20;;;19.20;99.90;;;;;;13043336;22;20177;-96
2022/07/11 16:14:52;;;;;;;0.32;0.20;;;19.40;99.90;;;;;;13034910;22;20196;-96
2022/07/11 16:20:00;;;;;;;0.65;0.20;;;19.60;99.90;;;;;;13048840;22;20214;-96
2022/07/11 16:25:10;;;;;;;0.93;0.15;;;19.60;99.90;;;;;;13062057;22;20238;-96
2022/07/11 16:30:14;;;;;;;0.32;0.20;;;19.70;99.90;;;;;;13064185;22;20207;-96
2022/07/11 16:35:27;;;;;;;0.28;0.20;;;19.60;99.90;;;;;;13067365;22;20197;-96
2022/07/11 16:46:53;;;;;;;0.30;0.20;;;19.60;99.90;;;;;;12964413;22;20203;-95
2022/07/11 16:51:56;;;;;;;0.95;0.30;;;19.90;99.90;;;;;;13090502;22;20573;-96
2022/07/11 16:56:59;;;;;;;0.20;0.20;;;20.40;99.90;;;;;;13064386;22;20225;-96
2022/07/11 17:02:03;;;;;;;0.65;0.20;;;20.90;99.90;;;;;;13090118;22;20175;-96
2022/07/11 17:07:06;;;;;;;0.60;0.30;;;21.10;99.90;;;;;;13065421;22;20180;-96
2022/07/11 17:12:09;;;;;;;0.30;0.20;;;21.20;99.90;;;;;;13065718;22;20173;-95
2022/07/11 17:17:11;;;;;;;0.17;0.13;;;21.50;99.90;;;;;;13089334;22;20193;-95
2022/07/11 17:22:14;;;;;;;0.17;0.17;;;21.70;99.90;;;;;;13063845;22;20176;-95
2022/07/11 17:27:17;;;;;;;0.75;0.20;;;21.80;99.90;;;;;;13090498;22;20183;-96
2022/07/11 17:32:19;;;;;;;0.25;0.22;;;21.80;99.90;;;;;;13064923;22;20176;-96
2022/07/11 17:37:22;;;;;;;4.07;0.85;;;21.80;99.90;;;;;;13064886;22;20269;-87
2022/07/11 17:42:25;;;;;;;3.00;0.73;;;21.70;99.90;;;;;;13081696;22;20172;-86
2022/07/11 17:47:27;;;;;;;3.78;0.60;;;20.40;99.90;;;;;;13082937;22;20192;-85
2022/07/11 17:52:31;;;;;;;1.05;0.50;;;;;;;;;;13083018;22;20180;-86
2022/07/11 17:57:33;;;;;;;1.17;0.60;;;22.40;99.90;;;;;;13080390;22;20510;-86
2022/07/11 18:02:36;;;;;;;0.80;0.40;;;22.80;99.90;;;;;;13081441;22;20172;-85
2022/07/11 18:07:40;;;;;;;0.80;0.57;;;22.90;99.90;;;;;;13081608;22;20661;-86
2022/07/11 18:12:42;;;;;;;0.47;0.35;;;23.20;99.90;;;;;;13079125;22;20184;-89
2022/07/11 18:17:45;;;;;;;2.30;0.60;;;23.40;99.90;;;;;;13106627;22;20188;-86
2022/07/11 18:22:49;;;;;;;1.65;0.40;;;23.50;99.90;;;;;;13077209;22;20226;-86
2022/07/11 18:27:51;;;;;;;0.80;0.55;;;23.40;99.90;;;;;;13106733;22;20168;-86
2022/07/11 18:32:55;;;;;;;0.40;0.30;;;23.50;99.90;;;;;;13084402;22;20237;-86
2022/07/11 18:37:57;;;;;;;0.50;0.25;;;23.60;99.90;;;;;;13088080;22;20200;-88
2022/07/11 18:42:59;;;;;;;0.93;0.38;;;23.60;99.90;;;;;;13088662;22;20202;-86
2022/07/11 18:48:03;;;;;;;0.40;0.40;;;23.60;99.90;;;;;;13087443;22;20204;-85
2022/07/11 18:53:07;;;;;;;0.50;0.30;;;23.60;99.90;;;;;;13064514;22;20181;-86
2022/07/11 18:58:10;;;;;;;0.63;0.40;;;23.50;99.90;;;;;;13090212;22;20188;-86
2022/07/11 19:03:13;;;;;;;0.63;0.60;;;23.50;99.90;;;;;;13115330;22;20169;-87
2022/07/11 19:08:15;;;;;;;0.88;0.40;;;23.50;99.90;;;;;;13115418;22;20172;-86
2022/07/11 19:13:18;;;;;;;1.08;0.45;;;23.50;99.90;;;;;;13117003;22;20161;-87
2022/07/11 19:18:20;;;;;;;0.30;0.30;;;23.50;99.90;;;;;;13149395;22;20206;-86
2022/07/11 19:23:22;;;;;;;0.68;0.50;;;23.50;99.90;;;;;;13129174;22;20206;-86
2022/07/11 19:28:25;;;;;;;0.88;0.30;;;23.40;99.90;;;;;;13170250;22;20176;-85
2022/07/11 19:33:28;;;;;;;0.47;0.30;;;23.40;99.90;;;;;;13133301;22;20177;-85
2022/07/11 19:38:33;;;;;;;1.67;0.50;;;23.40;99.90;;;;;;13140161;22;20196;-85
2022/07/11 19:43:38;;;;;;;2.28;0.40;;;23.40;99.90;;;;;;13152111;22;20164;-86
2022/07/11 19:48:40;;;;;;;1.65;0.93;;;23.40;99.90;;;;;;13142554;22;20218;-85
2022/07/11 19:53:43;;;;;;;0.75;0.32;;;23.40;99.90;;;;;;13171974;22;20988;-85
2022/07/11 19:58:51;;;;;;;2.05;0.38;;;23.40;99.90;;;;;;13131896;22;20189;-85
2022/07/11 20:03:53;;;;;;;0.68;0.52;;;23.30;99.90;;;;;;13119221;22;20302;-84
2022/07/11 20:08:56;;;;;;;2.05;0.93;;;23.30;99.90;;;;;;13142561;22;20161;-84
2022/07/11 20:13:59;;;;;;;1.42;0.57;;;23.30;99.90;;;;;;13172446;22;20869;-85
2022/07/11 20:19:01;;;;;;;0.60;0.40;;;23.20;99.90;;;;;;13169685;22;20170;-85
2022/07/11 20:24:04;;;;;;;0.90;0.50;;;23.20;99.90;;;;;;13119981;22;20231;-85
2022/07/11 20:29:07;;;;;;;0.80;0.30;;;23.20;99.90;;;;;;13173644;22;20203;-85
2022/07/11 20:34:09;;;;;;;0.40;0.30;;;23.20;99.90;;;;;;13172618;22;20247;-85
2022/07/11 20:39:12;;;;;;;0.70;0.63;;;23.20;99.90;;;;;;13132184;22;20194;-85
2022/07/11 20:44:15;;;;;;;2.30;0.40;;;23.10;99.90;;;;;;13135184;22;20190;-85
2022/07/11 20:49:18;;;;;;;0.43;0.40;;;23.10;99.90;;;;;;13134092;22;20193;-86
2022/07/11 20:54:21;;;;;;;0.40;0.32;;;23.10;99.90;;;;;;13074918;22;20223;-85
2022/07/11 20:59:25;;;;;;;0.52;0.40;;;23.10;99.90;;;;;;13128099;22;20503;-86
2022/07/11 21:04:31;;;;;;;0.50;0.50;;;23.00;99.90;;;;;;13115026;22;20550;-85
2022/07/11 21:09:33;;;;;;;0.40;0.40;;;23.00;99.90;;;;;;13092743;22;20168;-86
2022/07/11 21:14:36;;;;;;;0.65;0.47;;;23.00;99.90;;;;;;13136052;22;20253;-85
2022/07/11 21:19:38;;;;;;;0.65;0.40;;;22.90;99.90;;;;;;13090123;22;20643;-86
2022/07/11 21:24:41;;;;;;;2.35;0.68;;;22.90;99.90;;;;;;13092463;22;20176;-86
2022/07/11 21:29:46;;;;;;;0.57;0.32;;;22.90;99.90;;;;;;13095471;22;20237;-86
2022/07/11 21:34:48;;;;;;;0.50;0.30;;;22.90;99.90;;;;;;13091196;22;20204;-86
2022/07/11 21:39:51;;;;;;;0.40;0.35;;;22.80;99.90;;;;;;13137893;22;20164;-86
2022/07/11 21:44:54;;;;;;;0.95;0.52;;;22.80;99.90;;;;;;13135068;22;20172;-85
2022/07/11 21:49:56;;;;;;;0.50;0.40;;;22.70;99.90;;;;;;13088348;22;20589;-86
2022/07/11 21:55:02;;;;;;;0.93;0.40;;;22.70;99.90;;;;;;13087140;22;20184;-86
2022/07/11 22:00:11;;;;;;;0.47;0.40;;;22.70;99.90;;;;;;13081353;22;20176;-86
2022/07/11 22:05:16;;;;;;;0.30;0.30;;;22.70;99.90;;;;;;13099006;22;20168;-86
2022/07/11 22:10:19;;;;;;;1.38;0.40;;;22.70;99.90;;;;;;13079584;22;20172;-89
2022/07/11 22:15:21;;;;;;;0.38;0.17;;;22.70;99.90;;;;;;13079386;22;20250;-86
2022/07/11 22:20:24;;;;;;;0.45;0.40;;;22.60;99.90;;;;;;13110599;22;20168;-86
2022/07/11 22:25:26;;;;;;;0.57;0.40;;;22.70;99.90;;;;;;13056998;22;20181;-85
2022/07/11 22:30:29;;;;;;;1.30;0.50;;;22.70;99.90;;;;;;13101455;22;20214;-86
2022/07/11 22:35:32;;;;;;;0.40;0.30;;;22.70;99.90;;;;;;13081681;22;20500;-85
2022/07/11 22:40:34;;;;;;;0.68;0.50;;;22.70;99.90;;;;;;13108252;22;20164;-85
2022/07/11 22:45:43;;;;;;;0.60;0.40;;;22.60;99.90;;;;;;13080026;22;20548;-85
2022/07/11 22:51:05;;;;;;;0.90;0.40;;;22.60;99.90;;;;;;13106841;22;20175;-85
2022/07/11 22:56:08;;;;;;;0.40;0.32;;;22.60;99.90;;;;;;13107845;22;20237;-85
2022/07/11 23:01:11;;;;;;;0.68;0.50;;;22.60;99.90;;;;;;13108285;22;20543;-85
2022/07/11 23:06:13;;;;;;;0.60;0.40;;;22.50;99.90;;;;;;13081295;22;20172;-85
2022/07/11 23:11:15;;;;;;;0.57;0.40;;;22.50;99.90;;;;;;13081373;22;20164;-85
2022/07/11 23:16:18;;;;;;;0.43;0.43;;;22.50;99.90;;;;;;13108031;22;20188;-85
2022/07/11 23:21:21;;;;;;;0.47;0.40;;;22.50;99.90;;;;;;13112343;22;20214;-85
2022/07/11 23:26:23;;;;;;;2.25;1.05;;;22.50;99.90;;;;;;13112168;22;20168;-85
2022/07/11 23:31:27;;;;;;;0.43;0.40;;;22.40;99.90;;;;;;13112314;22;20498;-85
2022/07/11 23:36:31;;;;;;;0.32;0.32;;;22.40;99.90;;;;;;13111941;22;20196;-85
2022/07/11 23:41:34;;;;;;;1.73;0.40;;;22.40;99.90;;;;;;13111648;22;20168;-85
2022/07/11 23:46:37;;;;;;;0.70;0.60;;;22.30;99.90;;;;;;13111976;22;20223;-85
2022/07/11 23:51:40;;;;;;;1.25;0.50;;;22.30;99.90;;;;;;13058312;22;20180;-85
2022/07/11 23:56:42;;;;;;;0.40;0.30;;;22.30;99.90;;;;;;13084921;22;20188;-85
